sensor_id;sensor_type;location;lat;lon;timestamp;P1;durP1;ratioP1;P2;durP2;ratioP2
12451;SDS011;6291;48.924;12.204;2023-03-01T00:04:12;13.00;;;7.80;;
12451;SDS011;6291;48.924;12.204;2023-03-01T00:09:15;9.43;;;5.83;;
12451;SDS011;6291;48.924;12.204;2023-03-01T00:14:18;9.97;;;6.43;;
12451;SDS011;6291;48.924;12.204;2023-03-01T00:19:23;10.20;;;6.20;;
12451;SDS011;6291;48.924;12.204;2023-03-01T00:24:27;9.77;;;6.20;;
12451;SDS011;6291;48.924;12.204;2023-03-01T00:29:30;10.87;;;7.03;;
12451;SDS011;6291;48.924;12.204;2023-03-01T00:34:35;11.23;;;6.63;;
12451;SDS011;6291;48.924;12.204;2023-03-01T00:39:38;12.77;;;6.80;;
12451;SDS011;6291;48.924;12.204;2023-03-01T00:44:41;12.40;;;6.50;;
12451;SDS011;6291;48.924;12.204;2023-03-01T00:49:46;12.23;;;6.53;;
12451;SDS011;6291;48.924;12.204;2023-03-01T00:54:51;16.70;;;8.33;;
12451;SDS011;6291;48.924;12.204;2023-03-01T00:59:55;15.13;;;8.40;;
12451;SDS011;6291;48.924;12.204;2023-03-01T01:05:01;14.90;;;8.57;;
12451;SDS011;6291;48.924;12.204;2023-03-01T01:10:05;12.50;;;7.33;;
12451;SDS011;6291;48.924;12.204;2023-03-01T01:15:09;12.70;;;8.03;;
12451;SDS011;6291;48.924;12.204;2023-03-01T01:20:17;15.23;;;8.07;;
12451;SDS011;6291;48.924;12.204;2023-03-01T01:25:20;14.70;;;8.83;;
12451;SDS011;6291;48.924;12.204;2023-03-01T01:30:26;12.97;;;8.17;;
12451;SDS011;6291;48.924;12.204;2023-03-01T01:35:31;12.47;;;7.70;;
12451;SDS011;6291;48.924;12.204;2023-03-01T01:40:34;13.00;;;7.57;;
12451;SDS011;6291;48.924;12.204;2023-03-01T01:45:44;14.00;;;8.40;;
12451;SDS011;6291;48.924;12.204;2023-03-01T01:50:51;11.97;;;6.73;;
12451;SDS011;6291;48.924;12.204;2023-03-01T01:56:01;11.80;;;7.53;;
12451;SDS011;6291;48.924;12.204;2023-03-01T02:01:06;12.27;;;6.93;;
12451;SDS011;6291;48.924;12.204;2023-03-01T02:06:13;15.00;;;8.07;;
12451;SDS011;6291;48.924;12.204;2023-03-01T02:11:24;14.00;;;8.00;;
12451;SDS011;6291;48.924;12.204;2023-03-01T02:16:28;13.83;;;8.23;;
12451;SDS011;6291;48.924;12.204;2023-03-01T02:21:37;15.07;;;7.83;;
12451;SDS011;6291;48.924;12.204;2023-03-01T02:26:49;13.83;;;7.20;;
12451;SDS011;6291;48.924;12.204;2023-03-01T02:31:58;11.73;;;7.87;;
12451;SDS011;6291;48.924;12.204;2023-03-01T02:37:05;14.93;;;7.80;;
12451;SDS011;6291;48.924;12.204;2023-03-01T02:42:14;11.63;;;6.70;;
12451;SDS011;6291;48.924;12.204;2023-03-01T02:47:22;11.80;;;7.07;;
12451;SDS011;6291;48.924;12.204;2023-03-01T02:52:37;13.87;;;7.60;;
12451;SDS011;6291;48.924;12.204;2023-03-01T02:57:46;14.30;;;7.87;;
12451;SDS011;6291;48.924;12.204;2023-03-01T03:02:54;11.70;;;7.50;;
12451;SDS011;6291;48.924;12.204;2023-03-01T03:08:00;10.73;;;6.77;;
12451;SDS011;6291;48.924;12.204;2023-03-01T03:13:10;10.20;;;6.93;;
12451;SDS011;6291;48.924;12.204;2023-03-01T03:18:18;16.63;;;7.67;;
12451;SDS011;6291;48.924;12.204;2023-03-01T03:23:21;12.00;;;6.93;;
12451;SDS011;6291;48.924;12.204;2023-03-01T03:28:25;12.83;;;6.83;;
12451;SDS011;6291;48.924;12.204;2023-03-01T03:33:30;14.57;;;7.37;;
12451;SDS011;6291;48.924;12.204;2023-03-01T03:38:33;16.60;;;8.57;;
12451;SDS011;6291;48.924;12.204;2023-03-01T03:43:38;14.63;;;7.50;;
12451;SDS011;6291;48.924;12.204;2023-03-01T03:48:45;9.87;;;6.57;;
12451;SDS011;6291;48.924;12.204;2023-03-01T03:53:49;12.80;;;6.60;;
12451;SDS011;6291;48.924;12.204;2023-03-01T03:58:52;12.10;;;7.20;;
12451;SDS011;6291;48.924;12.204;2023-03-01T04:03:57;13.50;;;7.47;;
12451;SDS011;6291;48.924;12.204;2023-03-01T04:09:05;15.40;;;7.30;;
12451;SDS011;6291;48.924;12.204;2023-03-01T04:14:09;12.83;;;7.13;;
12451;SDS011;6291;48.924;12.204;2023-03-01T04:19:14;13.00;;;7.10;;
12451;SDS011;6291;48.924;12.204;2023-03-01T04:24:17;14.30;;;7.83;;
12451;SDS011;6291;48.924;12.204;2023-03-01T04:29:21;9.80;;;6.33;;
12451;SDS011;6291;48.924;12.204;2023-03-01T04:34:25;14.30;;;7.57;;
12451;SDS011;6291;48.924;12.204;2023-03-01T04:39:29;15.57;;;7.97;;
12451;SDS011;6291;48.924;12.204;2023-03-01T04:44:32;13.33;;;6.90;;
12451;SDS011;6291;48.924;12.204;2023-03-01T04:49:37;13.13;;;7.03;;
12451;SDS011;6291;48.924;12.204;2023-03-01T04:54:40;14.43;;;6.23;;
12451;SDS011;6291;48.924;12.204;2023-03-01T04:59:44;14.63;;;6.97;;
12451;SDS011;6291;48.924;12.204;2023-03-01T05:04:49;14.47;;;7.90;;
12451;SDS011;6291;48.924;12.204;2023-03-01T05:09:52;13.60;;;7.33;;
12451;SDS011;6291;48.924;12.204;2023-03-01T05:14:55;13.00;;;7.17;;
12451;SDS011;6291;48.924;12.204;2023-03-01T05:20:01;15.23;;;7.37;;
12451;SDS011;6291;48.924;12.204;2023-03-01T05:25:09;11.67;;;7.00;;
12451;SDS011;6291;48.924;12.204;2023-03-01T05:30:12;12.90;;;7.43;;
12451;SDS011;6291;48.924;12.204;2023-03-01T05:35:17;12.03;;;7.00;;
12451;SDS011;6291;48.924;12.204;2023-03-01T05:40:22;12.37;;;6.07;;
12451;SDS011;6291;48.924;12.204;2023-03-01T05:45:26;15.23;;;7.73;;
12451;SDS011;6291;48.924;12.204;2023-03-01T05:50:33;13.97;;;8.10;;
12451;SDS011;6291;48.924;12.204;2023-03-01T05:55:40;12.70;;;6.63;;
12451;SDS011;6291;48.924;12.204;2023-03-01T06:00:44;10.20;;;7.67;;
12451;SDS011;6291;48.924;12.204;2023-03-01T06:05:54;17.93;;;9.33;;
12451;SDS011;6291;48.924;12.204;2023-03-01T06:10:58;16.50;;;8.57;;
12451;SDS011;6291;48.924;12.204;2023-03-01T06:16:03;13.67;;;8.80;;
12451;SDS011;6291;48.924;12.204;2023-03-01T06:21:09;12.23;;;7.13;;
12451;SDS011;6291;48.924;12.204;2023-03-01T06:26:12;10.47;;;7.10;;
12451;SDS011;6291;48.924;12.204;2023-03-01T06:31:15;16.53;;;8.57;;
12451;SDS011;6291;48.924;12.204;2023-03-01T06:36:20;11.80;;;6.53;;
12451;SDS011;6291;48.924;12.204;2023-03-01T06:41:24;15.30;;;7.87;;
12451;SDS011;6291;48.924;12.204;2023-03-01T06:46:27;16.83;;;7.90;;
12451;SDS011;6291;48.924;12.204;2023-03-01T06:51:32;14.53;;;8.90;;
12451;SDS011;6291;48.924;12.204;2023-03-01T06:56:35;20.90;;;10.30;;
12451;SDS011;6291;48.924;12.204;2023-03-01T07:01:39;15.90;;;8.43;;
12451;SDS011;6291;48.924;12.204;2023-03-01T07:06:45;20.33;;;9.33;;
12451;SDS011;6291;48.924;12.204;2023-03-01T07:11:56;16.57;;;9.20;;
12451;SDS011;6291;48.924;12.204;2023-03-01T07:17:00;17.37;;;9.07;;
12451;SDS011;6291;48.924;12.204;2023-03-01T07:22:04;16.80;;;9.40;;
12451;SDS011;6291;48.924;12.204;2023-03-01T07:27:09;13.23;;;7.63;;
12451;SDS011;6291;48.924;12.204;2023-03-01T07:32:12;17.77;;;9.23;;
12451;SDS011;6291;48.924;12.204;2023-03-01T07:37:17;16.17;;;9.17;;
12451;SDS011;6291;48.924;12.204;2023-03-01T07:42:20;15.57;;;9.63;;
12451;SDS011;6291;48.924;12.204;2023-03-01T07:47:24;18.00;;;10.13;;
12451;SDS011;6291;48.924;12.204;2023-03-01T07:52:29;19.33;;;10.90;;
12451;SDS011;6291;48.924;12.204;2023-03-01T07:57:32;17.70;;;9.50;;
12451;SDS011;6291;48.924;12.204;2023-03-01T08:07:40;14.40;;;9.85;;
12451;SDS011;6291;48.924;12.204;2023-03-01T08:12:43;14.63;;;10.23;;
12451;SDS011;6291;48.924;12.204;2023-03-01T08:17:48;15.70;;;10.40;;
12451;SDS011;6291;48.924;12.204;2023-03-01T08:22:53;19.00;;;11.48;;
12451;SDS011;6291;48.924;12.204;2023-03-01T08:27:57;16.05;;;11.63;;
12451;SDS011;6291;48.924;12.204;2023-03-01T08:33:00;15.15;;;11.27;;
12451;SDS011;6291;48.924;12.204;2023-03-01T08:38:05;14.13;;;10.45;;
12451;SDS011;6291;48.924;12.204;2023-03-01T08:43:08;13.75;;;11.20;;
12451;SDS011;6291;48.924;12.204;2023-03-01T08:48:12;14.45;;;11.57;;
12451;SDS011;6291;48.924;12.204;2023-03-01T08:53:16;15.52;;;11.52;;
12451;SDS011;6291;48.924;12.204;2023-03-01T08:58:20;14.35;;;11.65;;
12451;SDS011;6291;48.924;12.204;2023-03-01T09:03:23;16.83;;;12.25;;
12451;SDS011;6291;48.924;12.204;2023-03-01T09:08:28;14.02;;;10.90;;
12451;SDS011;6291;48.924;12.204;2023-03-01T09:13:31;17.35;;;11.45;;
12451;SDS011;6291;48.924;12.204;2023-03-01T09:18:35;13.57;;;10.52;;
12451;SDS011;6291;48.924;12.204;2023-03-01T09:23:41;14.18;;;11.00;;
12451;SDS011;6291;48.924;12.204;2023-03-01T09:28:45;15.55;;;12.40;;
12451;SDS011;6291;48.924;12.204;2023-03-01T09:33:49;14.98;;;10.88;;
12451;SDS011;6291;48.924;12.204;2023-03-01T09:38:56;12.45;;;10.30;;
12451;SDS011;6291;48.924;12.204;2023-03-01T09:44:02;13.43;;;11.23;;
12451;SDS011;6291;48.924;12.204;2023-03-01T09:49:10;13.68;;;11.35;;
12451;SDS011;6291;48.924;12.204;2023-03-01T09:54:22;13.48;;;10.20;;
12451;SDS011;6291;48.924;12.204;2023-03-01T09:59:26;12.00;;;10.02;;
12451;SDS011;6291;48.924;12.204;2023-03-01T10:04:39;12.80;;;8.90;;
12451;SDS011;6291;48.924;12.204;2023-03-01T10:09:48;10.98;;;8.40;;
12451;SDS011;6291;48.924;12.204;2023-03-01T10:14:54;11.05;;;9.50;;
12451;SDS011;6291;48.924;12.204;2023-03-01T10:25:35;12.60;;;10.35;;
12451;SDS011;6291;48.924;12.204;2023-03-01T10:30:47;11.82;;;10.40;;
12451;SDS011;6291;48.924;12.204;2023-03-01T10:35:50;10.98;;;8.70;;
12451;SDS011;6291;48.924;12.204;2023-03-01T10:40:56;12.20;;;10.00;;
12451;SDS011;6291;48.924;12.204;2023-03-01T10:46:01;11.27;;;9.88;;
12451;SDS011;6291;48.924;12.204;2023-03-01T10:56:10;9.52;;;8.13;;
12451;SDS011;6291;48.924;12.204;2023-03-01T11:01:24;10.82;;;9.20;;
12451;SDS011;6291;48.924;12.204;2023-03-01T11:06:29;10.48;;;9.32;;
12451;SDS011;6291;48.924;12.204;2023-03-01T11:11:34;10.68;;;8.95;;
12451;SDS011;6291;48.924;12.204;2023-03-01T11:16:38;10.30;;;9.30;;
12451;SDS011;6291;48.924;12.204;2023-03-01T11:21:45;11.55;;;9.70;;
12451;SDS011;6291;48.924;12.204;2023-03-01T11:26:57;10.68;;;9.63;;
12451;SDS011;6291;48.924;12.204;2023-03-01T11:32:06;10.45;;;9.35;;
12451;SDS011;6291;48.924;12.204;2023-03-01T11:37:14;11.13;;;9.93;;
12451;SDS011;6291;48.924;12.204;2023-03-01T11:42:37;14.35;;;10.98;;
12451;SDS011;6291;48.924;12.204;2023-03-01T11:47:55;12.65;;;11.35;;
12451;SDS011;6291;48.924;12.204;2023-03-01T11:53:18;13.55;;;12.15;;
12451;SDS011;6291;48.924;12.204;2023-03-01T11:58:48;12.27;;;11.05;;
12451;SDS011;6291;48.924;12.204;2023-03-01T12:09:56;12.05;;;10.85;;
12451;SDS011;6291;48.924;12.204;2023-03-01T12:20:42;13.48;;;11.75;;
12451;SDS011;6291;48.924;12.204;2023-03-01T12:25:54;14.27;;;12.77;;
12451;SDS011;6291;48.924;12.204;2023-03-01T12:31:14;14.27;;;12.77;;
12451;SDS011;6291;48.924;12.204;2023-03-01T12:36:46;13.25;;;11.65;;
12451;SDS011;6291;48.924;12.204;2023-03-01T12:42:01;17.63;;;12.82;;
12451;SDS011;6291;48.924;12.204;2023-03-01T12:47:16;14.52;;;12.07;;
12451;SDS011;6291;48.924;12.204;2023-03-01T12:52:29;14.27;;;12.05;;
12451;SDS011;6291;48.924;12.204;2023-03-01T12:57:40;13.52;;;11.98;;
12451;SDS011;6291;48.924;12.204;2023-03-01T13:02:53;14.07;;;11.80;;
12451;SDS011;6291;48.924;12.204;2023-03-01T13:08:01;13.65;;;12.25;;
12451;SDS011;6291;48.924;12.204;2023-03-01T13:13:13;13.15;;;11.43;;
12451;SDS011;6291;48.924;12.204;2023-03-01T13:18:30;13.05;;;10.57;;
12451;SDS011;6291;48.924;12.204;2023-03-01T13:23:35;13.38;;;11.43;;
12451;SDS011;6291;48.924;12.204;2023-03-01T13:28:50;13.63;;;11.32;;
12451;SDS011;6291;48.924;12.204;2023-03-01T13:33:58;14.90;;;12.60;;
12451;SDS011;6291;48.924;12.204;2023-03-01T13:39:03;16.35;;;12.23;;
12451;SDS011;6291;48.924;12.204;2023-03-01T13:44:11;14.05;;;11.25;;
12451;SDS011;6291;48.924;12.204;2023-03-01T13:49:18;13.73;;;11.52;;
12451;SDS011;6291;48.924;12.204;2023-03-01T13:54:25;14.18;;;11.60;;
12451;SDS011;6291;48.924;12.204;2023-03-01T13:59:31;14.18;;;11.60;;
12451;SDS011;6291;48.924;12.204;2023-03-01T14:04:36;15.00;;;12.88;;
12451;SDS011;6291;48.924;12.204;2023-03-01T14:09:40;15.05;;;10.48;;
12451;SDS011;6291;48.924;12.204;2023-03-01T14:14:50;13.23;;;10.93;;
12451;SDS011;6291;48.924;12.204;2023-03-01T14:19:59;14.85;;;12.05;;
12451;SDS011;6291;48.924;12.204;2023-03-01T14:25:06;13.43;;;12.05;;
12451;SDS011;6291;48.924;12.204;2023-03-01T14:30:24;13.68;;;12.27;;
12451;SDS011;6291;48.924;12.204;2023-03-01T14:35:31;16.15;;;11.45;;
12451;SDS011;6291;48.924;12.204;2023-03-01T14:40:36;14.02;;;12.23;;
12451;SDS011;6291;48.924;12.204;2023-03-01T14:45:40;14.88;;;12.48;;
12451;SDS011;6291;48.924;12.204;2023-03-01T14:50:52;13.80;;;12.25;;
12451;SDS011;6291;48.924;12.204;2023-03-01T14:55:56;16.08;;;13.30;;
12451;SDS011;6291;48.924;12.204;2023-03-01T15:01:04;14.27;;;12.77;;
12451;SDS011;6291;48.924;12.204;2023-03-01T15:06:11;12.70;;;10.88;;
12451;SDS011;6291;48.924;12.204;2023-03-01T15:11:20;14.80;;;12.05;;
12451;SDS011;6291;48.924;12.204;2023-03-01T15:16:26;12.95;;;11.57;;
12451;SDS011;6291;48.924;12.204;2023-03-01T15:21:34;13.02;;;11.32;;
12451;SDS011;6291;48.924;12.204;2023-03-01T15:26:39;13.05;;;10.70;;
12451;SDS011;6291;48.924;12.204;2023-03-01T15:31:53;13.95;;;11.45;;
12451;SDS011;6291;48.924;12.204;2023-03-01T15:36:59;18.05;;;12.77;;
12451;SDS011;6291;48.924;12.204;2023-03-01T15:42:05;13.65;;;11.25;;
12451;SDS011;6291;48.924;12.204;2023-03-01T15:47:24;14.45;;;11.75;;
12451;SDS011;6291;48.924;12.204;2023-03-01T15:52:32;15.13;;;12.15;;
12451;SDS011;6291;48.924;12.204;2023-03-01T15:57:41;15.73;;;11.02;;
12451;SDS011;6291;48.924;12.204;2023-03-01T16:02:44;18.42;;;11.40;;
12451;SDS011;6291;48.924;12.204;2023-03-01T16:07:49;14.50;;;11.15;;
12451;SDS011;6291;48.924;12.204;2023-03-01T16:12:52;18.00;;;12.45;;
12451;SDS011;6291;48.924;12.204;2023-03-01T16:17:56;13.82;;;10.18;;
12451;SDS011;6291;48.924;12.204;2023-03-01T16:23:02;18.50;;;11.00;;
12451;SDS011;6291;48.924;12.204;2023-03-01T16:28:07;15.30;;;10.63;;
12451;SDS011;6291;48.924;12.204;2023-03-01T16:33:11;16.63;;;9.57;;
12451;SDS011;6291;48.924;12.204;2023-03-01T16:38:36;15.75;;;9.05;;
12451;SDS011;6291;48.924;12.204;2023-03-01T16:43:39;17.95;;;10.63;;
12451;SDS011;6291;48.924;12.204;2023-03-01T16:48:43;14.95;;;9.77;;
12451;SDS011;6291;48.924;12.204;2023-03-01T16:53:49;15.32;;;9.80;;
12451;SDS011;6291;48.924;12.204;2023-03-01T16:58:53;14.10;;;9.70;;
12451;SDS011;6291;48.924;12.204;2023-03-01T17:03:56;18.70;;;9.90;;
12451;SDS011;6291;48.924;12.204;2023-03-01T17:09:01;17.95;;;9.05;;
12451;SDS011;6291;48.924;12.204;2023-03-01T17:14:04;21.95;;;9.52;;
12451;SDS011;6291;48.924;12.204;2023-03-01T17:19:07;16.75;;;9.90;;
12451;SDS011;6291;48.924;12.204;2023-03-01T17:24:12;16.17;;;9.98;;
12451;SDS011;6291;48.924;12.204;2023-03-01T17:29:15;15.90;;;9.75;;
12451;SDS011;6291;48.924;12.204;2023-03-01T17:34:22;14.18;;;8.40;;
12451;SDS011;6291;48.924;12.204;2023-03-01T17:39:27;16.92;;;8.75;;
12451;SDS011;6291;48.924;12.204;2023-03-01T17:44:36;16.33;;;8.02;;
12451;SDS011;6291;48.924;12.204;2023-03-01T17:49:41;18.10;;;9.63;;
12451;SDS011;6291;48.924;12.204;2023-03-01T17:54:46;18.07;;;9.37;;
12451;SDS011;6291;48.924;12.204;2023-03-01T17:59:50;14.10;;;8.02;;
12451;SDS011;6291;48.924;12.204;2023-03-01T18:04:56;13.32;;;9.35;;
12451;SDS011;6291;48.924;12.204;2023-03-01T18:10:02;15.88;;;9.43;;
12451;SDS011;6291;48.924;12.204;2023-03-01T18:15:06;14.03;;;8.10;;
12451;SDS011;6291;48.924;12.204;2023-03-01T18:20:11;14.37;;;8.07;;
12451;SDS011;6291;48.924;12.204;2023-03-01T18:25:17;13.75;;;8.20;;
12451;SDS011;6291;48.924;12.204;2023-03-01T18:30:21;12.90;;;8.20;;
12451;SDS011;6291;48.924;12.204;2023-03-01T18:35:24;13.90;;;8.83;;
12451;SDS011;6291;48.924;12.204;2023-03-01T18:40:29;14.90;;;7.70;;
12451;SDS011;6291;48.924;12.204;2023-03-01T18:45:33;18.55;;;13.50;;
12451;SDS011;6291;48.924;12.204;2023-03-01T18:50:37;14.48;;;9.48;;
12451;SDS011;6291;48.924;12.204;2023-03-01T18:55:42;17.08;;;10.20;;
12451;SDS011;6291;48.924;12.204;2023-03-01T19:00:45;14.77;;;8.97;;
12451;SDS011;6291;48.924;12.204;2023-03-01T19:05:49;15.07;;;9.07;;
12451;SDS011;6291;48.924;12.204;2023-03-01T19:10:56;15.67;;;8.33;;
12451;SDS011;6291;48.924;12.204;2023-03-01T19:16:02;12.33;;;7.43;;
12451;SDS011;6291;48.924;12.204;2023-03-01T19:21:07;12.73;;;7.47;;
12451;SDS011;6291;48.924;12.204;2023-03-01T19:26:14;14.87;;;8.40;;
12451;SDS011;6291;48.924;12.204;2023-03-01T19:31:20;22.70;;;10.30;;
12451;SDS011;6291;48.924;12.204;2023-03-01T19:36:26;22.37;;;11.77;;
12451;SDS011;6291;48.924;12.204;2023-03-01T19:41:35;22.23;;;11.37;;
12451;SDS011;6291;48.924;12.204;2023-03-01T19:46:38;15.30;;;7.60;;
12451;SDS011;6291;48.924;12.204;2023-03-01T19:51:42;11.35;;;6.80;;
12451;SDS011;6291;48.924;12.204;2023-03-01T19:56:47;10.93;;;6.90;;
12451;SDS011;6291;48.924;12.204;2023-03-01T20:01:52;9.80;;;6.10;;
12451;SDS011;6291;48.924;12.204;2023-03-01T20:06:56;17.43;;;6.70;;
12451;SDS011;6291;48.924;12.204;2023-03-01T20:12:01;13.30;;;6.53;;
12451;SDS011;6291;48.924;12.204;2023-03-01T20:17:04;11.77;;;6.37;;
12451;SDS011;6291;48.924;12.204;2023-03-01T20:22:08;8.25;;;5.57;;
12451;SDS011;6291;48.924;12.204;2023-03-01T20:27:16;11.83;;;7.10;;
12451;SDS011;6291;48.924;12.204;2023-03-01T20:32:20;10.68;;;7.05;;
12451;SDS011;6291;48.924;12.204;2023-03-01T20:37:24;12.02;;;7.78;;
12451;SDS011;6291;48.924;12.204;2023-03-01T20:42:30;11.60;;;7.00;;
12451;SDS011;6291;48.924;12.204;2023-03-01T20:47:33;11.47;;;6.43;;
12451;SDS011;6291;48.924;12.204;2023-03-01T20:52:37;19.43;;;13.57;;
12451;SDS011;6291;48.924;12.204;2023-03-01T20:57:49;16.33;;;7.80;;
12451;SDS011;6291;48.924;12.204;2023-03-01T21:02:53;15.07;;;8.27;;
12451;SDS011;6291;48.924;12.204;2023-03-01T21:07:57;10.83;;;6.33;;
12451;SDS011;6291;48.924;12.204;2023-03-01T21:13:04;11.33;;;7.20;;
12451;SDS011;6291;48.924;12.204;2023-03-01T21:18:08;13.20;;;7.33;;
12451;SDS011;6291;48.924;12.204;2023-03-01T21:23:11;14.00;;;7.30;;
12451;SDS011;6291;48.924;12.204;2023-03-01T21:28:16;11.77;;;6.97;;
12451;SDS011;6291;48.924;12.204;2023-03-01T21:33:20;14.67;;;6.37;;
12451;SDS011;6291;48.924;12.204;2023-03-01T21:38:23;12.53;;;6.73;;
12451;SDS011;6291;48.924;12.204;2023-03-01T21:43:30;12.47;;;6.33;;
12451;SDS011;6291;48.924;12.204;2023-03-01T21:48:34;12.23;;;6.88;;
12451;SDS011;6291;48.924;12.204;2023-03-01T21:53:39;15.50;;;7.50;;
12451;SDS011;6291;48.924;12.204;2023-03-01T21:58:44;14.80;;;7.80;;
12451;SDS011;6291;48.924;12.204;2023-03-01T22:03:47;14.60;;;6.60;;
12451;SDS011;6291;48.924;12.204;2023-03-01T22:08:51;10.70;;;6.60;;
12451;SDS011;6291;48.924;12.204;2023-03-01T22:14:01;15.00;;;8.27;;
12451;SDS011;6291;48.924;12.204;2023-03-01T22:19:05;13.23;;;8.03;;
12451;SDS011;6291;48.924;12.204;2023-03-01T22:24:09;14.40;;;7.43;;
12451;SDS011;6291;48.924;12.204;2023-03-01T22:29:16;13.13;;;6.93;;
12451;SDS011;6291;48.924;12.204;2023-03-01T22:34:21;13.63;;;6.97;;
12451;SDS011;6291;48.924;12.204;2023-03-01T22:39:24;11.87;;;7.13;;
12451;SDS011;6291;48.924;12.204;2023-03-01T22:44:29;11.83;;;7.13;;
12451;SDS011;6291;48.924;12.204;2023-03-01T22:49:32;20.90;;;13.52;;
12451;SDS011;6291;48.924;12.204;2023-03-01T22:54:36;17.07;;;8.97;;
12451;SDS011;6291;48.924;12.204;2023-03-01T22:59:40;19.30;;;9.80;;
12451;SDS011;6291;48.924;12.204;2023-03-01T23:04:44;24.50;;;16.27;;
12451;SDS011;6291;48.924;12.204;2023-03-01T23:09:48;15.73;;;8.53;;
12451;SDS011;6291;48.924;12.204;2023-03-01T23:14:53;16.17;;;8.00;;
12451;SDS011;6291;48.924;12.204;2023-03-01T23:19:56;15.53;;;7.97;;
12451;SDS011;6291;48.924;12.204;2023-03-01T23:25:00;16.63;;;8.77;;
12451;SDS011;6291;48.924;12.204;2023-03-01T23:30:05;13.47;;;7.73;;
12451;SDS011;6291;48.924;12.204;2023-03-01T23:35:09;12.50;;;6.40;;
12451;SDS011;6291;48.924;12.204;2023-03-01T23:40:12;18.43;;;8.20;;
12451;SDS011;6291;48.924;12.204;2023-03-01T23:45:18;14.83;;;7.17;;
12451;SDS011;6291;48.924;12.204;2023-03-01T23:50:22;11.83;;;7.13;;
12451;SDS011;6291;48.924;12.204;2023-03-01T23:55:25;12.77;;;6.70;;
